Henry Post Army Air Field (Fort Sill) Fort Sill US
ICAO: KFSI
IATA: FSI
Category: Medium
Scheduled Services: No

Elevation: 1189 ft
TransAlt. 18000 ft.

Airport Communications:
FORT SILL APP/DEP:118.6
ATIS:135.425
CLNC DEL:121.7
POST GND:121.7
DUNCAN SCTR:118.6
PMSV METRO:37.52
PTD:123.05
POST TWR:124.95

KFSI Zoom In..

Runways:

(A) RW 17 length 5001 ft width 150 ft
---- / hdg 173

(B) RW 35 length 5001 ft width 150 ft
---- / hdg 353

Location; KFSI
Day. 29 / Time. 02.56 Zulu
* Altimeter: 30.08
* Temperature: 22° c. 71.6°f.
* Wind from: 080° Speed 04 kn.
Dewpoint: 16° c.
Visibility: 10 Statute Miles.
Clouds: Clear (automated report).

KFSI 290256Z AUTO 08004KT 10SM CLR 22/16 A3008 RMK AO2 SLP179 T02180161 52026 $


Wind From 080°
Speed 04 kn.

 
 
jpsmedia worldairports.se 2020   terms of use